Time;durP1;ratioP1;P1;durP2;ratioP2;P2;SDS_P1;SDS_P2;PMS_P1;PMS_P2;Temp;Humidity;BMP_temperature;BMP_pressure;BME280_temperature;BME280_humidity;BME280_pressure;Samples;Min_cycle;Max_cycle;Signal;HPM_P1;HPM_P2
2022/05/21 11:47:12;;;;;;;0.88;0.50;;;;;;;21.00;100.00;60892.56;4793297;28;20043;-90
2022/05/21 11:49:53;;;;;;;1.40;0.52;;;;;;;-145.06;100.00;60892.56;4784395;29;20027;-91
2022/05/21 11:52:35;;;;;;;1.38;0.52;;;;;;;20.91;100.00;60892.56;4756075;29;20466;-92
2022/05/21 11:55:30;;;;;;;1.35;0.57;;;;;;;20.81;100.00;60892.56;4739573;29;20062;-91
2022/05/21 11:58:16;;;;;;;1.20;0.50;;;;;;;-145.06;100.00;60892.56;4729071;29;20029;-91
2022/05/21 12:00:56;;;;;;;1.42;0.50;;;;;;;20.73;100.00;60892.56;4741493;29;20036;-90
2022/05/21 12:04:27;;;;;;;0.50;0.33;;;;;;;-145.06;100.00;60892.56;4744689;29;20036;-91
2022/05/21 12:07:07;;;;;;;1.15;0.50;;;;;;;-145.06;100.00;60892.56;4695209;29;20668;-91
2022/05/21 12:10:48;;;;;;;;;;;;;;;;;;;;;
2022/05/21 12:29:10;;;;;;;2.10;0.70;;;;;;;-145.06;100.00;60892.56;4986435;23;20059;-93
2022/05/21 12:32:11;;;;;;;0.95;0.50;;;;;;;-145.06;100.00;60892.56;4811392;28;20034;-93
2022/05/21 12:35:12;;;;;;;0.65;0.45;;;;;;;-145.06;100.00;60892.56;4800600;28;20357;-90
2022/05/21 12:38:02;;;;;;;0.63;0.40;;;;;;;-145.06;100.00;60892.56;4796037;28;20031;-90
2022/05/21 12:40:54;;;;;;;0.90;0.50;;;;;;;-145.06;100.00;60892.56;4787452;28;20516;-91
2022/05/21 12:43:48;;;;;;;0.95;0.50;;;;;;;22.37;100.00;60892.56;4794330;28;20105;-90
2022/05/21 12:46:41;;;;;;;1.52;0.80;;;;;;;-145.06;100.00;60892.56;4805892;28;20022;-91
2022/05/21 12:49:20;;;;;;;1.35;0.75;;;;;;;-145.06;100.00;60892.56;4786327;28;20031;-90
2022/05/21 12:51:59;;;;;;;2.60;0.70;;;;;;;62.66;100.00;60892.56;4796242;28;20030;-90
2022/05/21 12:54:38;;;;;;;0.93;0.70;;;;;;;21.68;100.00;60892.56;4790013;28;20027;-89
2022/05/21 12:57:19;;;;;;;1.95;0.73;;;;;;;22.37;100.00;60892.56;4786568;28;20122;-89
2022/05/21 13:00:04;;;;;;;0.73;0.40;;;;;;;-145.06;100.00;60892.56;4805105;28;20034;-90
2022/05/21 13:02:47;;;;;;;0.63;0.35;;;;;;;-145.06;100.00;60892.56;4787555;28;20034;-91
2022/05/21 13:05:34;;;;;;;0.50;0.30;;;;;;;-145.06;100.00;60892.56;4787835;28;20034;-90
2022/05/21 13:08:14;;;;;;;0.80;0.30;;;;;;;-145.06;100.00;60892.56;4786454;28;20620;-91
2022/05/21 13:10:56;;;;;;;0.57;0.30;;;;;;;-145.06;100.00;60892.56;4786912;28;20109;-91
2022/05/21 13:13:38;;;;;;;0.85;0.30;;;;;;;-145.06;100.00;60892.56;4786980;28;20113;-89
2022/05/21 13:16:19;;;;;;;0.50;0.30;;;;;;;-145.06;100.00;60892.56;4786659;28;20105;-90
2022/05/21 13:19:40;;;;;;;0.55;0.30;;;;;;;-145.06;100.00;60892.56;4792342;28;20027;-90
2022/05/21 13:22:37;;;;;;;0.60;0.22;;;;;;;-145.06;100.00;60892.56;4732409;29;20035;-91
2022/05/21 13:25:16;;;;;;;0.52;0.40;;;;;;;21.89;100.00;60892.56;4723506;29;20386;-91
2022/05/21 13:27:57;;;;;;;0.47;0.25;;;;;;;-145.06;100.00;60892.56;4786432;28;20122;-92
2022/05/21 13:30:36;;;;;;;0.90;0.25;;;;;;;-145.06;100.00;60892.56;4801168;28;20130;-91
2022/05/21 13:33:36;;;;;;;1.00;0.40;;;;;;;-145.06;100.00;60892.56;4793351;28;20030;-90
2022/05/21 13:36:22;;;;;;;1.20;0.40;;;;;;;-145.06;100.00;60892.56;4771101;28;20067;-90
2022/05/21 13:39:16;;;;;;;1.15;0.50;;;;;;;-145.06;100.00;60892.56;4802225;28;20026;-92
2022/05/21 13:42:01;;;;;;;0.80;0.30;;;;;;;22.14;100.00;60892.56;4805368;28;20053;-91
2022/05/21 13:44:42;;;;;;;1.10;0.30;;;;;;;-145.06;100.00;60892.56;4805124;28;20062;-91
2022/05/21 13:47:28;;;;;;;2.35;0.80;;;;;;;-145.06;100.00;60892.56;4768076;29;20481;-91
2022/05/21 13:50:09;;;;;;;0.90;0.50;;;;;;;-145.06;100.00;60892.56;4790805;28;20030;-92
2022/05/21 13:52:49;;;;;;;0.93;0.40;;;;;;;-145.06;100.00;60892.56;4796018;28;20484;-91
2022/05/21 13:55:29;;;;;;;0.55;0.32;;;;;;;-145.06;100.00;60892.56;4786725;28;20035;-90
2022/05/21 13:58:31;;;;;;;0.52;0.40;;;;;;;-145.06;100.00;60892.56;4786447;28;20022;-92
2022/05/21 14:01:29;;;;;;;0.80;0.30;;;;;;;-145.06;100.00;60892.56;4775849;28;20034;-91
2022/05/21 14:04:34;;;;;;;0.65;0.40;;;;;;;-145.06;100.00;60892.56;4801874;28;20101;-90
2022/05/21 14:07:37;;;;;;;1.10;0.40;;;;;;;-145.06;100.00;60892.56;4786486;28;20027;-92
2022/05/21 14:10:31;;;;;;;1.27;0.30;;;;;;;-145.06;100.00;60892.56;4805192;28;20109;-91
2022/05/21 14:13:55;;;;;;;0.95;0.40;;;;;;;-145.06;100.00;60892.56;4778987;28;20061;-91
2022/05/21 14:16:37;;;;;;;1.70;0.50;;;;;;;-145.06;100.00;60892.56;4801291;28;20384;-91
2022/05/21 14:19:16;;;;;;;1.48;0.38;;;;;;;22.73;100.00;60892.56;4802980;28;20485;-91
2022/05/21 14:22:16;;;;;;;0.43;0.30;;;;;;;-145.06;100.00;60892.56;4790002;28;20039;-92
2022/05/21 14:25:16;;;;;;;0.90;0.30;;;;;;;-145.06;100.00;60892.56;4791744;28;20488;-91
2022/05/21 14:28:20;;;;;;;0.82;0.30;;;;;;;-145.06;100.00;60892.56;4803703;28;20042;-93
2022/05/21 14:31:19;;;;;;;1.08;0.30;;;;;;;-145.06;100.00;60892.56;4792554;28;20038;-91
2022/05/21 14:41:33;;;;;;;3.50;3.20;;;;;;;-145.06;100.00;60892.56;4779169;29;20096;-91
2022/05/21 14:44:24;;;;;;;2.63;1.80;;;;;;;-145.06;100.00;60892.56;4789161;28;20030;-92
2022/05/21 14:53:00;;;;;;;1.50;1.02;;;;;;;187.52;100.00;60892.56;4776870;28;20122;-90
2022/05/21 14:55:40;;;;;;;1.25;0.45;;;;;;;31.47;100.00;60892.56;4772353;28;20027;-92
2022/05/21 14:58:20;;;;;;;;;;;;;;;-145.06;100.00;60892.56;4782342;28;20030;-92
2022/05/21 15:00:59;;;;;;;2.58;1.33;;;;;;;-145.06;100.00;60892.56;4782604;28;19941;-92
2022/05/21 15:03:59;;;;;;;9.93;8.93;;;;;;;41.86;100.00;60892.56;4778675;29;20031;-92
2022/05/21 15:06:49;;;;;;;14.10;10.18;;;;;;;-145.06;100.00;60892.56;4794644;28;20067;-91
2022/05/21 15:09:30;;;;;;;9.98;6.85;;;;;;;-145.06;100.00;60892.56;4756224;28;20379;-92
2022/05/21 15:12:13;;;;;;;7.15;4.88;;;;;;;-145.06;100.00;60892.56;4776051;29;20027;-91
2022/05/21 15:15:00;;;;;;;4.40;3.33;;;;;;;-145.06;100.00;60892.56;4771321;29;20027;-92
2022/05/21 15:21:55;;;;;;;2.78;2.13;;;;;;;-145.06;100.00;60892.56;4721541;29;20119;-94
2022/05/21 15:28:20;;;;;;;3.47;2.50;;;;;;;-145.06;100.00;60892.56;4740041;29;20029;-91
2022/05/21 15:34:42;;;;;;;1.80;1.30;;;;;;;-145.06;100.00;60892.56;4799887;22;20508;-90
2022/05/21 15:41:26;;;;;;;1.40;0.70;;;;;;;-145.06;100.00;60892.56;4789916;28;20040;-89
2022/05/21 15:44:14;;;;;;;1.17;0.63;;;;;;;-145.06;100.00;60892.56;4769078;28;20473;-95
2022/05/21 15:47:07;;;;;;;;;;;;;;;;;;;;;
2022/05/21 15:49:49;;;;;;;0.43;0.20;;;;;;;-145.06;100.00;60892.56;4785237;29;20094;-94
2022/05/21 15:52:47;;;;;;;0.82;0.43;;;;;;;104.26;100.00;60892.56;4785329;29;20043;-92
2022/05/21 16:06:12;;;;;;;0.85;0.25;;;;;;;-145.06;100.00;60892.56;4806356;23;20060;-91
2022/05/21 16:17:25;;;;;;;0.82;0.40;;;;;;;-145.06;100.00;60892.56;4698993;29;20033;-91
2022/05/21 16:24:29;;;;;;;0.40;0.30;;;;;;;-145.06;100.00;60892.56;4663118;29;20046;-90
2022/05/21 16:40:15;;;;;;;;;;;;;;;;;;;;;
2022/05/21 16:59:04;;;;;;;0.77;0.60;;;;;;;-145.06;100.00;60892.56;4772107;29;20063;-93
2022/05/21 17:02:28;;;;;;;0.30;0.20;;;;;;;-145.06;100.00;60892.56;4751390;29;20035;-91
2022/05/21 17:12:37;;;;;;;0.30;0.20;;;;;;;-145.06;100.00;60892.56;4765279;29;20110;-91
2022/05/21 17:15:33;;;;;;;1.02;0.30;;;;;;;-145.06;100.00;60892.56;4778935;28;20028;-91
2022/05/21 17:43:56;;;;;;;1.33;0.38;;;;;;;-145.06;100.00;60892.56;5008450;23;20039;-89
2022/05/21 17:46:35;;;;;;;0.32;0.20;;;;;;;-145.06;100.00;60892.56;4783219;28;20039;-89
2022/05/21 17:49:14;;;;;;;0.65;0.28;;;;;;;-145.06;100.00;60892.56;4774032;28;20058;-90
2022/05/21 17:52:48;;;;;;;2.65;0.28;;;;;;;-145.06;100.00;60892.56;4769366;29;20047;-92
2022/05/21 17:55:40;;;;;;;2.85;1.33;;;;;;;-145.06;100.00;60892.56;4769916;28;20031;-90
2022/05/21 17:58:28;;;;;;;1.23;0.40;;;;;;;-145.06;100.00;60892.56;4752305;29;20023;-90
2022/05/21 18:01:13;;;;;;;0.60;0.38;;;;;;;-145.06;100.00;60892.56;4755950;29;20038;-90
2022/05/21 18:03:56;;;;;;;1.02;0.30;;;;;;;-145.06;100.00;60892.56;4930566;23;20031;-92
2022/05/21 18:06:36;;;;;;;0.77;0.38;;;;;;;-145.06;100.00;60892.56;4788514;28;20035;-89
2022/05/21 18:09:15;;;;;;;0.75;0.32;;;;;;;-145.06;100.00;60892.56;4788149;28;20058;-89
2022/05/21 18:12:12;;;;;;;0.98;0.22;;;;;;;-145.06;100.00;60892.56;4792158;28;20039;-93
2022/05/21 18:14:52;;;;;;;1.02;0.30;;;;;;;-145.06;100.00;60892.56;4786396;28;20035;-90
2022/05/21 18:20:56;;;;;;;2.40;0.30;;;;;;;-145.06;100.00;60892.56;4803892;28;20035;-91
2022/05/21 18:23:35;;;;;;;0.63;0.20;;;;;;;-145.06;100.00;60892.56;4793218;28;20034;-91
2022/05/21 18:26:26;;;;;;;0.73;0.30;;;;;;;-145.06;100.00;60892.56;4794980;28;20035;-92
2022/05/21 18:29:07;;;;;;;0.90;0.40;;;;;;;-145.06;100.00;60892.56;4808595;28;20035;-91
2022/05/21 18:31:50;;;;;;;0.93;0.20;;;;;;;-145.06;100.00;60892.56;4780147;28;20038;-90
2022/05/21 18:34:31;;;;;;;0.20;0.10;;;;;;;-145.06;100.00;60892.56;4783900;28;20034;-92
2022/05/21 18:37:11;;;;;;;0.38;0.20;;;;;;;20.69;100.00;60892.56;4801404;28;20649;-92
2022/05/21 18:39:50;;;;;;;0.40;0.20;;;;;;;-145.06;100.00;60892.56;4799864;28;20038;-89
2022/05/21 18:42:32;;;;;;;0.40;0.22;;;;;;;-145.06;100.00;60892.56;4781911;28;20046;-93
2022/05/21 18:45:41;;;;;;;;;;;;;;;;;;;;;
2022/05/21 18:52:29;;;;;;;;;;;;;;;-145.06;100.00;60892.56;4735928;28;20068;-92
2022/05/21 18:55:08;;;;;;;0.28;0.20;;;;;;;-145.06;100.00;60892.56;4788232;28;19918;-91
2022/05/21 18:57:52;;;;;;;0.40;0.20;;;;;;;-145.06;100.00;60892.56;4786852;28;20030;-91
2022/05/21 19:00:31;;;;;;;0.30;0.20;;;;;;;-145.06;100.00;60892.56;4798128;28;20042;-91
2022/05/21 19:03:12;;;;;;;0.70;0.37;;;;;;;-145.06;100.00;60892.56;4797959;28;20069;-91
2022/05/21 19:05:54;;;;;;;0.90;0.35;;;;;;;-145.06;100.00;60892.56;4814120;28;20278;-91
2022/05/21 19:08:34;;;;;;;1.02;0.40;;;;;;;-145.06;100.00;60892.56;4784806;28;20118;-92
2022/05/21 19:11:28;;;;;;;0.50;0.20;;;;;;;-145.06;100.00;60892.56;4787873;28;20496;-93
2022/05/21 19:14:07;;;;;;;0.40;0.20;;;;;;;-145.06;100.00;60892.56;4805552;28;20034;-90
2022/05/21 19:16:47;;;;;;;0.70;0.30;;;;;;;-145.06;100.00;60892.56;4797663;28;20054;-91
2022/05/21 19:19:29;;;;;;;1.13;0.30;;;;;;;-145.06;100.00;60892.56;4790250;28;20039;-92
2022/05/21 19:22:08;;;;;;;0.45;0.25;;;;;;;-145.06;100.00;60892.56;4798320;28;20063;-93
2022/05/21 19:24:47;;;;;;;0.17;0.10;;;;;;;-145.06;100.00;60892.56;4778980;28;20369;-91
2022/05/21 19:27:31;;;;;;;0.38;0.20;;;;;;;-145.06;100.00;60892.56;4786682;28;20070;-92
2022/05/21 19:30:12;;;;;;;1.33;0.40;;;;;;;-145.06;100.00;60892.56;4799783;28;20035;-91
2022/05/21 19:32:52;;;;;;;0.60;0.25;;;;;;;-145.06;100.00;60892.56;4794650;28;20039;-91
2022/05/21 19:35:31;;;;;;;1.07;0.30;;;;;;;-145.06;100.00;60892.56;4795933;28;20074;-92
2022/05/21 19:38:12;;;;;;;0.50;0.30;;;;;;;-145.06;100.00;60892.56;4786338;28;20266;-92
2022/05/21 19:43:52;;;;;;;0.50;0.20;;;;;;;-145.06;100.00;60892.56;4802098;28;20039;-92
2022/05/21 19:46:32;;;;;;;0.45;0.30;;;;;;;-145.06;100.00;60892.56;4790668;28;20699;-93
2022/05/21 19:49:11;;;;;;;2.05;0.20;;;;;;;-145.06;100.00;60892.56;4799297;28;20046;-92
2022/05/21 19:51:51;;;;;;;1.70;0.60;;;;;;;-145.06;100.00;60892.56;4791117;28;20035;-91
2022/05/21 19:54:30;;;;;;;0.80;0.50;;;;;;;-145.06;100.00;60892.56;4783272;28;20286;-92
2022/05/21 19:57:16;;;;;;;1.00;0.40;;;;;;;19.56;100.00;60892.56;4787354;28;20043;-91
2022/05/21 20:00:00;;;;;;;1.20;0.70;;;;;;;19.54;100.00;60892.56;4798608;28;20034;-92
2022/05/21 20:02:40;;;;;;;0.52;0.35;;;;;;;19.50;100.00;60892.56;4795127;28;20449;-91
2022/05/21 20:05:20;;;;;;;0.88;0.40;;;;;;;19.48;100.00;60892.56;4789410;28;20066;-93
2022/05/21 20:07:59;;;;;;;1.45;0.52;;;;;;;-145.06;100.00;60892.56;4797937;28;20027;-92
2022/05/21 20:10:42;;;;;;;1.07;0.50;;;;;;;-145.06;100.00;60892.56;4797033;28;20042;-92
2022/05/21 20:13:24;;;;;;;1.00;0.50;;;;;;;-145.06;100.00;60892.56;4784896;28;20035;-91
2022/05/21 20:16:03;;;;;;;1.77;0.38;;;;;;;-145.06;100.00;60892.56;4790178;28;20035;-92
2022/05/21 20:18:42;;;;;;;0.57;0.43;;;;;;;-145.06;100.00;60892.56;4789511;28;20027;-91
2022/05/21 20:21:22;;;;;;;0.73;0.50;;;;;;;-145.06;100.00;60892.56;4788901;28;20034;-91
2022/05/21 20:24:02;;;;;;;1.33;0.40;;;;;;;-145.06;100.00;60892.56;4788217;28;20054;-92
2022/05/21 20:27:12;;;;;;;1.55;0.40;;;;;;;-145.06;100.00;60892.56;4808449;28;20035;-92
2022/05/21 20:29:51;;;;;;;0.70;0.30;;;;;;;-145.06;100.00;60892.56;4795226;28;20366;-91
2022/05/21 20:32:31;;;;;;;0.93;0.60;;;;;;;-145.06;100.00;60892.56;4784040;29;20469;-92
2022/05/21 20:35:12;;;;;;;0.32;0.22;;;;;;;-145.06;100.00;60892.56;4813952;28;20116;-92
2022/05/21 20:37:57;;;;;;;1.70;0.30;;;;;;;-145.06;100.00;60892.56;4807688;28;20034;-92
2022/05/21 20:40:37;;;;;;;0.90;0.40;;;;;;;-145.06;100.00;60892.56;4797604;28;20023;-91
2022/05/21 20:43:22;;;;;;;0.80;0.30;;;;;;;-145.06;100.00;60892.56;4788501;28;20035;-91
2022/05/21 20:46:12;;;;;;;1.40;0.40;;;;;;;-145.06;100.00;60892.56;4796490;28;20380;-92
2022/05/21 20:51:55;;;;;;;0.85;0.40;;;;;;;-145.06;100.00;60892.56;4820931;28;20038;-91
2022/05/21 20:54:36;;;;;;;1.20;0.43;;;;;;;-145.06;100.00;60892.56;4804927;28;20030;-92
2022/05/21 20:57:20;;;;;;;0.40;0.30;;;;;;;-145.06;100.00;60892.56;4802653;28;20062;-92
2022/05/21 20:59:59;;;;;;;1.20;0.40;;;;;;;-145.06;100.00;60892.56;4788728;28;20062;-92
2022/05/21 21:02:40;;;;;;;0.40;0.30;;;;;;;18.41;100.00;60892.56;4788609;28;20027;-92
2022/05/21 21:05:21;;;;;;;1.25;0.47;;;;;;;18.34;100.00;60892.56;4788981;28;20030;-93
2022/05/21 21:08:00;;;;;;;0.50;0.35;;;;;;;-145.06;100.00;60892.56;4801842;28;20369;-92
2022/05/21 21:10:47;;;;;;;0.20;0.20;;;;;;;-145.06;100.00;60892.56;4788558;28;20030;-91
2022/05/21 21:13:29;;;;;;;0.88;0.55;;;;;;;-145.06;100.00;60892.56;4788556;28;20034;-91
2022/05/21 21:16:12;;;;;;;1.20;0.40;;;;;;;-145.06;100.00;60892.56;4801932;28;20031;-92
2022/05/21 21:18:56;;;;;;;0.40;0.40;;;;;;;-145.06;100.00;60892.56;4803586;28;20023;-91
2022/05/21 21:21:35;;;;;;;1.30;0.45;;;;;;;-145.06;100.00;60892.56;4800928;28;20030;-92
2022/05/21 21:24:20;;;;;;;0.50;0.40;;;;;;;-145.06;100.00;60892.56;4794957;28;20031;-91
2022/05/21 21:26:59;;;;;;;1.00;0.68;;;;;;;18.15;100.00;60892.56;4800790;28;20042;-91
2022/05/21 21:30:05;;;;;;;0.77;0.40;;;;;;;-145.06;100.00;60892.56;4808543;28;20062;-91
2022/05/21 21:32:55;;;;;;;0.63;0.32;;;;;;;-145.06;100.00;60892.56;4785279;28;20030;-91
2022/05/21 21:35:49;;;;;;;;;;;;;;;;;;;;;
2022/05/21 21:38:31;;;;;;;0.63;0.30;;;;;;;-145.06;100.00;60892.56;4801974;28;20109;-92
2022/05/21 21:41:12;;;;;;;0.98;0.43;;;;;;;-145.06;100.00;60892.56;4787667;28;20023;-93
2022/05/21 21:43:51;;;;;;;0.38;0.30;;;;;;;-145.06;100.00;60892.56;4787824;28;20034;-90
2022/05/21 21:46:49;;;;;;;0.65;0.40;;;;;;;-145.06;100.00;60892.56;4787969;28;20058;-92
2022/05/21 21:49:28;;;;;;;0.68;0.30;;;;;;;-145.06;100.00;60892.56;4769617;29;20047;-92
2022/05/21 21:52:08;;;;;;;0.73;0.45;;;;;;;-145.06;100.00;60892.56;4806029;28;20030;-92
2022/05/21 21:54:52;;;;;;;0.40;0.30;;;;;;;-145.06;100.00;60892.56;4801634;28;20480;-92
2022/05/21 21:57:42;;;;;;;0.60;0.40;;;;;;;-145.06;100.00;60892.56;4787629;28;20031;-91
2022/05/21 22:03:46;;;;;;;0.60;0.40;;;;;;;-145.06;100.00;60892.56;4801559;28;20109;-93
2022/05/21 22:06:26;;;;;;;0.60;0.30;;;;;;;-145.06;100.00;60892.56;4787736;28;20122;-91
2022/05/21 22:09:05;;;;;;;;;;;;;;;-145.06;100.00;60892.56;4798838;28;20031;-91
2022/05/21 22:12:06;;;;;;;0.95;0.38;;;;;;;-145.06;100.00;60892.56;4812512;28;19910;-93
2022/05/21 22:14:50;;;;;;;0.90;0.50;;;;;;;-145.06;100.00;60892.56;4798167;28;20038;-91
2022/05/21 22:17:47;;;;;;;0.63;0.50;;;;;;;-145.06;100.00;60892.56;4807032;28;20030;-92
2022/05/21 22:20:45;;;;;;;;;;;;;;;;;;;;;
2022/05/21 22:23:24;;;;;;;1.05;0.32;;;;;;;-145.06;100.00;60892.56;4803764;28;20397;-91
2022/05/21 22:26:03;;;;;;;0.80;0.30;;;;;;;-145.06;100.00;60892.56;4793795;28;20034;-91
2022/05/21 22:28:54;;;;;;;1.77;0.47;;;;;;;-145.06;100.00;60892.56;4793951;28;20489;-91
2022/05/21 22:31:37;;;;;;;0.68;0.35;;;;;;;-145.06;100.00;60892.56;4804718;28;20412;-92
2022/05/21 22:34:16;;;;;;;0.50;0.40;;;;;;;-145.06;100.00;60892.56;4811659;28;20031;-92
2022/05/21 22:36:56;;;;;;;0.80;0.45;;;;;;;-145.06;100.00;60892.56;4826917;28;20500;-91
2022/05/21 22:39:37;;;;;;;1.77;0.63;;;;;;;-145.06;100.00;60892.56;4798340;28;20038;-91
2022/05/21 22:42:16;;;;;;;0.60;0.57;;;;;;;-145.06;100.00;60892.56;4806552;28;20058;-93
2022/05/21 22:44:55;;;;;;;0.87;0.47;;;;;;;-145.06;100.00;60892.56;4791088;28;20043;-92
2022/05/21 22:47:36;;;;;;;0.95;0.45;;;;;;;-145.06;100.00;60892.56;4805082;28;20056;-92
2022/05/21 22:50:15;;;;;;;0.55;0.40;;;;;;;-145.06;100.00;60892.56;4791408;28;20035;-92
2022/05/21 22:52:54;;;;;;;1.23;0.50;;;;;;;-145.06;100.00;60892.56;4791154;28;20102;-91
2022/05/21 22:55:35;;;;;;;0.65;0.50;;;;;;;187.52;100.00;60892.56;4791163;28;20034;-90
2022/05/21 22:58:14;;;;;;;1.35;0.52;;;;;;;-145.06;100.00;60892.56;4803151;28;20018;-91
2022/05/21 23:00:58;;;;;;;0.90;0.40;;;;;;;-145.06;100.00;60892.56;4809822;28;20026;-92
2022/05/21 23:03:40;;;;;;;0.70;0.40;;;;;;;-145.06;100.00;60892.56;4816475;28;20042;-92
2022/05/21 23:06:19;;;;;;;2.15;0.50;;;;;;;15.97;100.00;60892.56;4808088;28;20121;-90
2022/05/21 23:08:57;;;;;;;0.95;0.50;;;;;;;17.18;100.00;60892.56;4790779;28;20031;-92
2022/05/21 23:11:36;;;;;;;0.43;0.30;;;;;;;-145.06;100.00;60892.56;4790630;28;20031;-91
2022/05/21 23:20:14;;;;;;;0.80;0.40;;;;;;;-145.06;100.00;60892.56;4822441;28;20030;-90
2022/05/21 23:22:54;;;;;;;2.38;0.50;;;;;;;-145.06;100.00;60892.56;4798809;28;20042;-92
2022/05/21 23:25:36;;;;;;;0.30;0.30;;;;;;;-145.06;100.00;60892.56;4790663;28;20038;-92
2022/05/21 23:28:19;;;;;;;1.90;0.80;;;;;;;187.52;100.00;60892.56;4794972;28;20030;-92
2022/05/21 23:31:05;;;;;;;1.85;0.63;;;;;;;-145.06;100.00;60892.56;4795504;28;20118;-91
2022/05/21 23:33:47;;;;;;;0.30;0.30;;;;;;;-145.06;100.00;60892.56;4797696;28;20034;-91
2022/05/21 23:36:34;;;;;;;1.05;0.60;;;;;;;-145.06;100.00;60892.56;4794887;28;20027;-91
2022/05/21 23:39:13;;;;;;;0.98;0.50;;;;;;;-145.06;100.00;60892.56;4771883;29;20031;-93
2022/05/21 23:41:52;;;;;;;1.00;0.50;;;;;;;-145.06;100.00;60892.56;4788060;28;20535;-91
2022/05/21 23:44:32;;;;;;;0.52;0.30;;;;;;;-145.06;100.00;60892.56;4809361;28;20027;-91
2022/05/21 23:47:25;;;;;;;0.70;0.50;;;;;;;-145.06;100.00;60892.56;4788387;28;20042;-90
2022/05/21 23:50:12;;;;;;;0.82;0.40;;;;;;;-145.06;100.00;60892.56;4789771;28;20023;-91
2022/05/21 23:52:52;;;;;;;0.90;0.50;;;;;;;-145.06;100.00;60892.56;4790228;28;20038;-90
2022/05/21 23:55:31;;;;;;;0.65;0.40;;;;;;;-145.06;100.00;60892.56;4812147;28;20362;-91
2022/05/21 23:58:25;;;;;;;1.02;0.52;;;;;;;-145.06;100.00;60892.56;4790287;28;20026;-91
